Аэропорт: Байкал. Улан-Удэ

ICAO: UIUU

METAR:
2018/07/16 19:30
UIUU 161930Z VRB01MPS 9999 SCT043CB 17/15 Q1002 R26/CLRD60 NOSIG RMK QFE708/0944
METAR:
2018/07/16 18:21
TAF UIUU 161700Z 1618/1718 01003MPS 9999 SCT030CB 
      TEMPO 1618/1715 VRB08MPS -TSRA